< < Back
Terminal Aerodrome Forecast


Current Version              Previous Versions:   1  2  3  4  5  6  7  8  9  

Terminal Aerodrome Forecast

726
FTUS42 KGSP 030656 AAA
TAFAND
TAF AMD
KAND 030656Z 0307/0406 22005KT P6SM VCSH SCT050 BKN100
      TEMPO 0307/0311 5SM -SHRA BR BKN009
     FM031200 23009KT 5SM BR BKN010
     FM031400 23010KT P6SM VCSH BKN080
     FM031800 24016G25KT 6SM -SHRA BKN050 PROB30 0320/0324 4SM TSRA
      OVC040CB
     FM040000 25011KT P6SM BKN110
     FM040300 24007KT P6SM BKN110=



Latest METAR

341
SAUS70 KWBC 031200 RRE
MTRAND
METAR KAND 031156Z AUTO 19004KT 10SM CLR 22/22 A2993 RMK AO2 RAE12
SLP127 P0000 60014 70103 T02220217 10228 20217 50004


USA.gov is the U.S. government's official web portal to all federal, state and local government web resources and services.